Aérodrome :
LOGIN :

S'inscrire | Disclaimer

   EN    FR    IT 

 










Légende :    VFR   VFR Marginal   IFR   IFR Intensif   IFR Très Intensif
Visi : 
Plafond : 
>= 8 km
>= 3000ft
5 à 8 km
1000 à 3000 ft
1500m à 5 km
500 à 1000 ft
800 à 1500m
200 à 500 ft
< 800m
< 200 ft
Symboles :   Orages  Brouillard  Fortes neiges  Fortes précipitations  Vent > 20 kt
SIGMETs :   Divers  Orages  Givrage  Turbulence  Onde Orograph.  Cendres Volcan.






- Altitude de l'aérodrome : 3006 ft
- Code IATA : LEN


LELN - Leon

DERNIER METAR :
  • 200130Z AUTO 35003KT CAVOK 06/01 Q1019

METARs EXPIRÉS :
  • 200100Z AUTO 35004KT CAVOK 07/01 Q1019
  • 200030Z AUTO 01005KT CAVOK 10/01 Q1019
  • 200000Z AUTO 02004KT 350V060 CAVOK 09/01 Q1019
  • 192330Z AUTO 35004KT 320V020 CAVOK 08/01 Q1019
  • 192300Z AUTO 36004KT 330V070 CAVOK 09/01 Q1019
  • 192230Z AUTO 36004KT CAVOK 10/M01 Q1019
  • 192200Z AUTO 35007KT CAVOK 12/M02 Q1019
  • 192130Z AUTO 36005KT CAVOK 08/M01 Q1019
  • 192100Z AUTO 01003KT CAVOK 07/M00 Q1019

TAF TAF LELN
Valide du 19 à 21h jusqu'au 20 à 21h UTC


192000Z 1921/2021 01005KT CAVOK TX22/2015Z TN05/2006Z



MET'MAP, la Météo Aéronautique d'un coup d'oeil ! - Copyright ORBIFLY Décembre 2007 - Disclaimer

ORBIFLY MET'MAP TEAM :

Programmation & Développement : Alexandra Zaïnal
Sur une idée originale de : Baudouin d'Aumeries
Soutien technique & logistique : Manuel Goepfert
Assistance : Marc-Olivier Méhu




SOURCES & CREDITS :

   NOAA